»·PEaware :: N623JB KSBA-KBUR

N623JB :: KSBA-KBUR

FLIGHT INFORMATION

Flight Status: Arrived
Operator: Privately registered:
United States
More flights under this callsign
Pilot: Jonathan B. (32222)
Aircraft: CIRRUS SR-22
(SR22)
More flights by this aircraft type
Origin: KSBA Santa Barbara Mun
United States
Destination: KBUR Bob Hope-Burbank
United States
More flights between these airports :: More routes between these airports
Route:
File this flight plan on PilotEdge
Remarks:
Altitude:
(Current/Filed)
5,500ft
Speed:
(Current/Filed)
140kts
Departed: 11-Nov-20 02:17 PM
Arrived: 11-Nov-20 02:49 PM
Distance/Time
Traveled:
6855nm/0:32
Distance/Time
To Go:
Arrived

Flight Plot

Page will automatically refresh every two minutes.


Map Options




Map Legend


Flown Route
Filed Route
Departure Airport
Arrival Airport
Navaid (VOR, NDB)
Fix

Horizontal Profiles

Position Reports

Time Latitude Longitude Heading Altitude Ground
Speed
11-Nov-20 14:13 34.430706 -119.839866 252 11ft 0kts
11-Nov-20 14:14 34.430706 -119.839866 252 11ft 0kts
11-Nov-20 14:15 34.430706 -119.839866 252 11ft 0kts
11-Nov-20 14:16 34.419486 -119.836716 164 91ft 120kts
11-Nov-20 14:17 34.385382 -119.826485 167 712ft 119kts
11-Nov-20 14:18 34.369848 -119.799670 77 2157ft 114kts
11-Nov-20 14:19 34.377214 -119.761775 78 3604ft 116kts
11-Nov-20 14:20 34.382447 -119.722912 81 4949ft 118kts
11-Nov-20 14:21 34.396762 -119.681796 61 5469ft 151kts
11-Nov-20 14:22 34.394137 -119.631329 99 5493ft 157kts
11-Nov-20 14:23 34.387346 -119.579134 101 5497ft 157kts
11-Nov-20 14:24 34.379763 -119.526806 100 5499ft 158kts
11-Nov-20 14:25 34.371995 -119.474434 100 5500ft 157kts
11-Nov-20 14:27 34.364026 -119.421070 100 5504ft 165kts
11-Nov-20 14:28 34.355790 -119.366120 100 5499ft 166kts
11-Nov-20 14:29 34.347523 -119.310999 100 5495ft 165kts
11-Nov-20 14:30 34.339258 -119.256068 100 5501ft 166kts
11-Nov-20 14:31 34.330916 -119.200937 100 5498ft 166kts
11-Nov-20 14:32 34.322606 -119.145898 100 5499ft 166kts
11-Nov-20 14:33 34.314294 -119.090990 101 5501ft 166kts
11-Nov-20 14:34 34.305860 -119.035980 100 5498ft 166kts
11-Nov-20 14:35 34.297465 -118.981150 100 5499ft 166kts
11-Nov-20 14:36 34.288975 -118.925798 100 5500ft 169kts
11-Nov-20 14:37 34.280381 -118.869950 100 5499ft 170kts
11-Nov-20 14:38 34.271677 -118.813544 100 5499ft 170kts
11-Nov-20 14:39 34.263019 -118.757636 100 5500ft 170kts
11-Nov-20 14:40 34.254338 -118.701751 100 5433ft 170kts
11-Nov-20 14:40 34.247505 -118.657823 101 5144ft 154kts
11-Nov-20 14:42 34.238524 -118.600469 100 4426ft 136kts
11-Nov-20 14:42 34.232832 -118.564063 100 3853ft 128kts
11-Nov-20 14:44 34.225727 -118.518763 101 3488ft 113kts
11-Nov-20 14:45 34.219847 -118.481467 101 3197ft 112kts
11-Nov-20 14:46 34.209298 -118.447977 132 2699ft 119kts
11-Nov-20 14:46 34.197747 -118.416610 87 1759ft 110kts
11-Nov-20 14:47 34.198073 -118.382870 91 995ft 90kts
11-Nov-20 14:48 34.198124 -118.360218 352 717ft 10kts
11-Nov-20 14:49 34.198536 -118.360232 11 717ft 0kts
11-Nov-20 14:50 34.198536 -118.360232 11 717ft 0kts
11-Nov-20 14:51 34.200003 -118.359074 39 719ft 6kts
11-Nov-20 14:52 34.200100 -118.358751 77 720ft 0kts
11-Nov-20 14:53 0.000408 0.013975 359 3ft 0kts
11-Nov-20 14:54 0.000408 0.013975 359 3ft 0kts
11-Nov-20 14:55 0.000408 0.013975 359 3ft 0kts
11-Nov-20 14:56 0.000408 0.013975 359 3ft 0kts
11-Nov-20 14:57 0.000408 0.013975 359 3ft 0kts
11-Nov-20 14:58 0.000408 0.013975 359 3ft 0kts
11-Nov-20 14:59 0.000408 0.013975 359 3ft 0kts
11-Nov-20 15:00 0.000408 0.013975 359 3ft 0kts
11-Nov-20 15:01 0.000408 0.013975 359 3ft 0kts
11-Nov-20 15:02 0.000408 0.013975 359 3ft 0kts

Navigation Log

Ident Type
Flight plan parsing failed, navigation log unavailable